sensor_id;sensor_type;location;lat;lon;timestamp;temperature;humidity
22436;DHT22;11385;50.822;4.324;2024-01-15T00:00:51;2.70;99.90
22436;DHT22;11385;50.822;4.324;2024-01-15T00:03:17;2.60;99.90
22436;DHT22;11385;50.822;4.324;2024-01-15T00:05:44;2.70;99.90
22436;DHT22;11385;50.822;4.324;2024-01-15T00:08:10;2.60;99.90
22436;DHT22;11385;50.822;4.324;2024-01-15T00:10:37;2.50;99.90
22436;DHT22;11385;50.822;4.324;2024-01-15T00:13:06;2.50;99.90
22436;DHT22;11385;50.822;4.324;2024-01-15T00:15:33;2.50;99.90
22436;DHT22;11385;50.822;4.324;2024-01-15T00:17:59;2.50;99.90
22436;DHT22;11385;50.822;4.324;2024-01-15T00:20:26;2.50;99.90
22436;DHT22;11385;50.822;4.324;2024-01-15T00:22:52;2.40;99.90
22436;DHT22;11385;50.822;4.324;2024-01-15T00:25:19;2.40;99.90
22436;DHT22;11385;50.822;4.324;2024-01-15T00:27:46;2.60;99.90
22436;DHT22;11385;50.822;4.324;2024-01-15T00:30:13;2.60;99.90
22436;DHT22;11385;50.822;4.324;2024-01-15T00:32:40;2.60;99.90
22436;DHT22;11385;50.822;4.324;2024-01-15T00:35:08;2.50;99.90
22436;DHT22;11385;50.822;4.324;2024-01-15T00:37:35;2.60;99.90
22436;DHT22;11385;50.822;4.324;2024-01-15T00:40:02;2.70;99.90
22436;DHT22;11385;50.822;4.324;2024-01-15T00:42:28;2.70;99.90
22436;DHT22;11385;50.822;4.324;2024-01-15T00:44:55;2.70;99.90
22436;DHT22;11385;50.822;4.324;2024-01-15T00:47:22;2.80;99.90
22436;DHT22;11385;50.822;4.324;2024-01-15T00:49:48;2.80;99.90
22436;DHT22;11385;50.822;4.324;2024-01-15T00:52:15;2.90;99.90
22436;DHT22;11385;50.822;4.324;2024-01-15T00:54:42;2.90;99.90
22436;DHT22;11385;50.822;4.324;2024-01-15T00:57:08;2.90;99.90
22436;DHT22;11385;50.822;4.324;2024-01-15T00:59:35;3.00;99.90
22436;DHT22;11385;50.822;4.324;2024-01-15T01:02:01;3.00;99.90
22436;DHT22;11385;50.822;4.324;2024-01-15T01:04:28;3.00;99.90
22436;DHT22;11385;50.822;4.324;2024-01-15T01:06:55;3.10;99.90
22436;DHT22;11385;50.822;4.324;2024-01-15T01:09:21;3.00;99.90
22436;DHT22;11385;50.822;4.324;2024-01-15T01:11:48;3.00;99.90
22436;DHT22;11385;50.822;4.324;2024-01-15T01:14:14;3.00;99.90
22436;DHT22;11385;50.822;4.324;2024-01-15T01:16:42;2.90;99.90
22436;DHT22;11385;50.822;4.324;2024-01-15T01:19:09;3.00;99.90
22436;DHT22;11385;50.822;4.324;2024-01-15T01:21:35;2.90;99.90
22436;DHT22;11385;50.822;4.324;2024-01-15T01:24:02;2.90;99.90
22436;DHT22;11385;50.822;4.324;2024-01-15T01:26:30;2.90;99.90
22436;DHT22;11385;50.822;4.324;2024-01-15T01:28:57;2.80;99.90
22436;DHT22;11385;50.822;4.324;2024-01-15T01:31:25;2.70;99.90
22436;DHT22;11385;50.822;4.324;2024-01-15T01:33:51;2.70;99.90
22436;DHT22;11385;50.822;4.324;2024-01-15T01:36:18;2.80;99.90
22436;DHT22;11385;50.822;4.324;2024-01-15T01:38:45;2.80;99.90
22436;DHT22;11385;50.822;4.324;2024-01-15T01:41:11;2.90;99.90
22436;DHT22;11385;50.822;4.324;2024-01-15T01:43:38;2.80;99.90
22436;DHT22;11385;50.822;4.324;2024-01-15T01:46:05;2.90;99.90
22436;DHT22;11385;50.822;4.324;2024-01-15T01:48:32;2.80;99.90
22436;DHT22;11385;50.822;4.324;2024-01-15T01:51:01;2.80;99.90
22436;DHT22;11385;50.822;4.324;2024-01-15T01:53:31;2.80;99.90
22436;DHT22;11385;50.822;4.324;2024-01-15T01:55:58;2.90;99.90
22436;DHT22;11385;50.822;4.324;2024-01-15T01:58:27;3.00;99.90
22436;DHT22;11385;50.822;4.324;2024-01-15T02:00:55;2.90;99.90
22436;DHT22;11385;50.822;4.324;2024-01-15T02:03:22;2.90;99.90
22436;DHT22;11385;50.822;4.324;2024-01-15T02:05:49;2.90;99.90
22436;DHT22;11385;50.822;4.324;2024-01-15T02:08:16;2.90;99.90
22436;DHT22;11385;50.822;4.324;2024-01-15T02:10:42;3.10;99.90
22436;DHT22;11385;50.822;4.324;2024-01-15T02:13:09;3.10;99.90
22436;DHT22;11385;50.822;4.324;2024-01-15T02:15:36;3.00;99.90
22436;DHT22;11385;50.822;4.324;2024-01-15T02:18:05;3.00;99.90
22436;DHT22;11385;50.822;4.324;2024-01-15T02:20:33;2.90;99.90
22436;DHT22;11385;50.822;4.324;2024-01-15T02:23:19;3.10;99.90
22436;DHT22;11385;50.822;4.324;2024-01-15T02:25:48;3.00;99.90
22436;DHT22;11385;50.822;4.324;2024-01-15T02:28:16;3.10;99.90
22436;DHT22;11385;50.822;4.324;2024-01-15T02:30:43;3.00;99.90
22436;DHT22;11385;50.822;4.324;2024-01-15T02:33:11;2.90;99.90
22436;DHT22;11385;50.822;4.324;2024-01-15T02:35:38;3.00;99.90
22436;DHT22;11385;50.822;4.324;2024-01-15T02:38:06;3.00;99.90
22436;DHT22;11385;50.822;4.324;2024-01-15T02:40:34;2.80;99.90
22436;DHT22;11385;50.822;4.324;2024-01-15T02:43:01;2.90;99.90
22436;DHT22;11385;50.822;4.324;2024-01-15T02:45:28;2.90;99.90
22436;DHT22;11385;50.822;4.324;2024-01-15T02:47:54;3.00;99.90
22436;DHT22;11385;50.822;4.324;2024-01-15T02:50:21;2.90;99.90
22436;DHT22;11385;50.822;4.324;2024-01-15T02:52:48;2.90;99.90
22436;DHT22;11385;50.822;4.324;2024-01-15T02:55:14;3.00;99.90
22436;DHT22;11385;50.822;4.324;2024-01-15T02:57:41;3.10;99.90
22436;DHT22;11385;50.822;4.324;2024-01-15T03:00:08;3.10;99.90
22436;DHT22;11385;50.822;4.324;2024-01-15T03:02:37;3.10;99.90
22436;DHT22;11385;50.822;4.324;2024-01-15T03:05:07;3.00;99.90
22436;DHT22;11385;50.822;4.324;2024-01-15T03:07:34;3.10;99.90
22436;DHT22;11385;50.822;4.324;2024-01-15T03:10:01;3.10;99.90
22436;DHT22;11385;50.822;4.324;2024-01-15T03:12:28;3.00;99.90
22436;DHT22;11385;50.822;4.324;2024-01-15T03:14:54;3.10;99.90
22436;DHT22;11385;50.822;4.324;2024-01-15T03:17:21;3.00;99.90
22436;DHT22;11385;50.822;4.324;2024-01-15T03:19:48;3.00;99.90
22436;DHT22;11385;50.822;4.324;2024-01-15T03:22:16;3.00;99.90
22436;DHT22;11385;50.822;4.324;2024-01-15T03:24:44;3.10;99.90
22436;DHT22;11385;50.822;4.324;2024-01-15T03:27:11;3.20;99.90
22436;DHT22;11385;50.822;4.324;2024-01-15T03:29:37;3.10;99.90
22436;DHT22;11385;50.822;4.324;2024-01-15T03:32:04;3.10;99.90
22436;DHT22;11385;50.822;4.324;2024-01-15T03:34:30;3.10;99.90
22436;DHT22;11385;50.822;4.324;2024-01-15T03:36:57;3.10;99.90
22436;DHT22;11385;50.822;4.324;2024-01-15T03:39:25;3.10;99.90
22436;DHT22;11385;50.822;4.324;2024-01-15T03:41:51;3.10;99.90
22436;DHT22;11385;50.822;4.324;2024-01-15T03:44:18;3.00;99.90
22436;DHT22;11385;50.822;4.324;2024-01-15T03:46:45;3.20;99.90
22436;DHT22;11385;50.822;4.324;2024-01-15T03:49:11;3.10;99.90
22436;DHT22;11385;50.822;4.324;2024-01-15T03:51:38;3.00;99.90
22436;DHT22;11385;50.822;4.324;2024-01-15T03:54:04;2.90;99.90
22436;DHT22;11385;50.822;4.324;2024-01-15T03:56:31;2.80;99.90
22436;DHT22;11385;50.822;4.324;2024-01-15T03:58:58;2.80;99.90
22436;DHT22;11385;50.822;4.324;2024-01-15T04:01:24;2.80;99.90
22436;DHT22;11385;50.822;4.324;2024-01-15T04:03:51;2.70;99.90
22436;DHT22;11385;50.822;4.324;2024-01-15T04:06:17;2.70;99.90
22436;DHT22;11385;50.822;4.324;2024-01-15T04:08:44;2.70;99.90
22436;DHT22;11385;50.822;4.324;2024-01-15T04:11:11;2.70;99.90
22436;DHT22;11385;50.822;4.324;2024-01-15T04:13:37;2.80;99.90
22436;DHT22;11385;50.822;4.324;2024-01-15T04:16:04;2.80;99.90
22436;DHT22;11385;50.822;4.324;2024-01-15T04:18:30;2.90;99.90
22436;DHT22;11385;50.822;4.324;2024-01-15T04:20:57;2.90;99.90
22436;DHT22;11385;50.822;4.324;2024-01-15T04:23:24;2.80;99.90
22436;DHT22;11385;50.822;4.324;2024-01-15T04:25:50;2.90;99.90
22436;DHT22;11385;50.822;4.324;2024-01-15T04:28:17;3.00;99.90
22436;DHT22;11385;50.822;4.324;2024-01-15T04:30:44;2.90;99.90
22436;DHT22;11385;50.822;4.324;2024-01-15T04:33:10;2.80;99.90
22436;DHT22;11385;50.822;4.324;2024-01-15T04:35:37;2.90;99.90
22436;DHT22;11385;50.822;4.324;2024-01-15T04:38:04;2.70;99.90
22436;DHT22;11385;50.822;4.324;2024-01-15T04:40:31;2.90;99.90
22436;DHT22;11385;50.822;4.324;2024-01-15T04:42:57;2.70;99.90
22436;DHT22;11385;50.822;4.324;2024-01-15T04:45:24;2.70;99.90
22436;DHT22;11385;50.822;4.324;2024-01-15T04:47:52;2.70;99.90
22436;DHT22;11385;50.822;4.324;2024-01-15T04:50:19;2.70;99.90
22436;DHT22;11385;50.822;4.324;2024-01-15T04:52:46;2.70;99.90
22436;DHT22;11385;50.822;4.324;2024-01-15T04:55:12;2.60;99.90
22436;DHT22;11385;50.822;4.324;2024-01-15T04:57:39;2.60;99.90
22436;DHT22;11385;50.822;4.324;2024-01-15T05:00:06;2.70;99.90
22436;DHT22;11385;50.822;4.324;2024-01-15T05:02:33;2.70;99.90
22436;DHT22;11385;50.822;4.324;2024-01-15T05:05:00;2.70;99.90
22436;DHT22;11385;50.822;4.324;2024-01-15T05:07:26;2.70;99.90
22436;DHT22;11385;50.822;4.324;2024-01-15T05:09:53;2.80;99.90
22436;DHT22;11385;50.822;4.324;2024-01-15T05:12:20;2.70;99.90
22436;DHT22;11385;50.822;4.324;2024-01-15T05:14:46;2.60;99.90
22436;DHT22;11385;50.822;4.324;2024-01-15T05:17:13;2.70;99.90
22436;DHT22;11385;50.822;4.324;2024-01-15T05:19:39;2.60;99.90
22436;DHT22;11385;50.822;4.324;2024-01-15T05:22:06;2.60;99.90
22436;DHT22;11385;50.822;4.324;2024-01-15T05:24:33;2.60;99.90
22436;DHT22;11385;50.822;4.324;2024-01-15T05:26:59;2.50;99.90
22436;DHT22;11385;50.822;4.324;2024-01-15T05:29:26;2.40;99.90
22436;DHT22;11385;50.822;4.324;2024-01-15T05:31:53;2.20;99.90
22436;DHT22;11385;50.822;4.324;2024-01-15T05:34:19;2.20;99.90
22436;DHT22;11385;50.822;4.324;2024-01-15T05:36:46;2.20;99.90
22436;DHT22;11385;50.822;4.324;2024-01-15T05:39:13;2.30;99.90
22436;DHT22;11385;50.822;4.324;2024-01-15T05:41:40;2.20;99.90
22436;DHT22;11385;50.822;4.324;2024-01-15T05:44:07;2.20;99.90
22436;DHT22;11385;50.822;4.324;2024-01-15T05:46:33;2.10;99.90
22436;DHT22;11385;50.822;4.324;2024-01-15T05:49:00;2.10;99.90
22436;DHT22;11385;50.822;4.324;2024-01-15T05:51:26;2.10;99.90
22436;DHT22;11385;50.822;4.324;2024-01-15T05:53:53;2.00;99.90
22436;DHT22;11385;50.822;4.324;2024-01-15T05:56:19;2.10;99.90
22436;DHT22;11385;50.822;4.324;2024-01-15T05:58:46;2.20;99.90
22436;DHT22;11385;50.822;4.324;2024-01-15T06:01:13;2.20;99.90
22436;DHT22;11385;50.822;4.324;2024-01-15T06:03:39;2.30;99.90
22436;DHT22;11385;50.822;4.324;2024-01-15T06:06:06;2.30;99.90
22436;DHT22;11385;50.822;4.324;2024-01-15T06:08:34;2.30;99.90
22436;DHT22;11385;50.822;4.324;2024-01-15T06:11:01;2.30;99.90
22436;DHT22;11385;50.822;4.324;2024-01-15T06:13:29;2.20;99.90
22436;DHT22;11385;50.822;4.324;2024-01-15T06:15:55;2.30;99.90
22436;DHT22;11385;50.822;4.324;2024-01-15T06:18:23;2.10;99.90
22436;DHT22;11385;50.822;4.324;2024-01-15T06:20:49;2.00;99.90
22436;DHT22;11385;50.822;4.324;2024-01-15T06:23:16;2.10;99.90
22436;DHT22;11385;50.822;4.324;2024-01-15T06:25:42;2.20;99.90
22436;DHT22;11385;50.822;4.324;2024-01-15T06:28:09;2.20;99.90
22436;DHT22;11385;50.822;4.324;2024-01-15T06:30:36;2.10;99.90
22436;DHT22;11385;50.822;4.324;2024-01-15T06:33:03;2.10;99.90
22436;DHT22;11385;50.822;4.324;2024-01-15T06:35:29;2.10;99.90
22436;DHT22;11385;50.822;4.324;2024-01-15T06:37:56;2.00;99.90
22436;DHT22;11385;50.822;4.324;2024-01-15T06:40:22;2.00;99.90
22436;DHT22;11385;50.822;4.324;2024-01-15T06:42:49;2.10;99.90
22436;DHT22;11385;50.822;4.324;2024-01-15T06:45:16;1.90;99.90
22436;DHT22;11385;50.822;4.324;2024-01-15T06:47:42;1.90;99.90
22436;DHT22;11385;50.822;4.324;2024-01-15T06:50:09;2.00;99.90
22436;DHT22;11385;50.822;4.324;2024-01-15T06:52:35;2.00;99.90
22436;DHT22;11385;50.822;4.324;2024-01-15T06:55:02;1.90;99.90
22436;DHT22;11385;50.822;4.324;2024-01-15T06:57:29;2.00;99.90
22436;DHT22;11385;50.822;4.324;2024-01-15T06:59:56;2.00;99.90
22436;DHT22;11385;50.822;4.324;2024-01-15T07:02:22;1.90;99.90
22436;DHT22;11385;50.822;4.324;2024-01-15T07:04:49;1.90;99.90
22436;DHT22;11385;50.822;4.324;2024-01-15T07:07:15;1.80;99.90
22436;DHT22;11385;50.822;4.324;2024-01-15T07:09:43;1.80;99.90
22436;DHT22;11385;50.822;4.324;2024-01-15T07:12:09;1.80;99.90
22436;DHT22;11385;50.822;4.324;2024-01-15T07:14:36;1.90;99.90
22436;DHT22;11385;50.822;4.324;2024-01-15T07:17:02;2.00;99.90
22436;DHT22;11385;50.822;4.324;2024-01-15T07:19:29;1.80;99.90
22436;DHT22;11385;50.822;4.324;2024-01-15T07:21:56;1.80;99.90
22436;DHT22;11385;50.822;4.324;2024-01-15T07:24:22;1.80;99.90
22436;DHT22;11385;50.822;4.324;2024-01-15T07:26:49;1.60;99.90
22436;DHT22;11385;50.822;4.324;2024-01-15T07:29:15;1.70;99.90
22436;DHT22;11385;50.822;4.324;2024-01-15T07:31:48;1.70;99.90
22436;DHT22;11385;50.822;4.324;2024-01-15T07:34:15;1.80;99.90
22436;DHT22;11385;50.822;4.324;2024-01-15T07:36:44;1.80;99.90
22436;DHT22;11385;50.822;4.324;2024-01-15T07:39:11;1.80;99.90
22436;DHT22;11385;50.822;4.324;2024-01-15T07:41:38;1.60;99.90
22436;DHT22;11385;50.822;4.324;2024-01-15T07:44:05;1.50;99.90
22436;DHT22;11385;50.822;4.324;2024-01-15T07:46:32;1.60;99.90
22436;DHT22;11385;50.822;4.324;2024-01-15T07:48:58;1.60;99.90
22436;DHT22;11385;50.822;4.324;2024-01-15T07:51:25;1.70;99.90
22436;DHT22;11385;50.822;4.324;2024-01-15T07:53:54;1.80;99.90
22436;DHT22;11385;50.822;4.324;2024-01-15T07:56:22;1.70;99.90
22436;DHT22;11385;50.822;4.324;2024-01-15T07:58:48;1.60;99.90
22436;DHT22;11385;50.822;4.324;2024-01-15T08:01:15;1.60;99.90
22436;DHT22;11385;50.822;4.324;2024-01-15T08:03:42;1.60;99.90
22436;DHT22;11385;50.822;4.324;2024-01-15T08:06:08;1.60;99.90
22436;DHT22;11385;50.822;4.324;2024-01-15T08:08:36;1.70;99.90
22436;DHT22;11385;50.822;4.324;2024-01-15T08:11:03;1.60;99.90
22436;DHT22;11385;50.822;4.324;2024-01-15T08:13:30;1.70;99.90
22436;DHT22;11385;50.822;4.324;2024-01-15T08:15:57;1.80;99.90
22436;DHT22;11385;50.822;4.324;2024-01-15T08:18:23;1.80;99.90
22436;DHT22;11385;50.822;4.324;2024-01-15T08:20:51;1.80;99.90
22436;DHT22;11385;50.822;4.324;2024-01-15T08:23:18;1.90;99.90
22436;DHT22;11385;50.822;4.324;2024-01-15T08:25:45;2.00;99.90
22436;DHT22;11385;50.822;4.324;2024-01-15T08:28:12;1.90;99.90
22436;DHT22;11385;50.822;4.324;2024-01-15T08:30:39;1.80;99.90
22436;DHT22;11385;50.822;4.324;2024-01-15T08:33:05;1.90;99.90
22436;DHT22;11385;50.822;4.324;2024-01-15T08:35:32;1.90;99.90
22436;DHT22;11385;50.822;4.324;2024-01-15T08:37:58;1.80;99.90
22436;DHT22;11385;50.822;4.324;2024-01-15T08:40:26;1.90;99.90
22436;DHT22;11385;50.822;4.324;2024-01-15T08:42:52;1.90;99.90
22436;DHT22;11385;50.822;4.324;2024-01-15T08:45:19;2.10;99.90
22436;DHT22;11385;50.822;4.324;2024-01-15T08:47:46;2.10;99.90
22436;DHT22;11385;50.822;4.324;2024-01-15T08:50:12;2.10;99.90
22436;DHT22;11385;50.822;4.324;2024-01-15T08:52:39;2.10;99.90
22436;DHT22;11385;50.822;4.324;2024-01-15T08:55:06;2.10;99.90
22436;DHT22;11385;50.822;4.324;2024-01-15T08:57:34;2.10;99.90
22436;DHT22;11385;50.822;4.324;2024-01-15T09:00:01;2.10;99.90
22436;DHT22;11385;50.822;4.324;2024-01-15T09:02:27;2.00;99.90
22436;DHT22;11385;50.822;4.324;2024-01-15T09:04:54;2.00;99.90
22436;DHT22;11385;50.822;4.324;2024-01-15T09:07:21;2.10;99.90
22436;DHT22;11385;50.822;4.324;2024-01-15T09:09:48;2.20;99.90
22436;DHT22;11385;50.822;4.324;2024-01-15T09:12:14;2.20;99.90
22436;DHT22;11385;50.822;4.324;2024-01-15T09:14:41;2.30;99.90
22436;DHT22;11385;50.822;4.324;2024-01-15T09:17:08;2.30;99.90
22436;DHT22;11385;50.822;4.324;2024-01-15T09:19:34;2.40;99.90
22436;DHT22;11385;50.822;4.324;2024-01-15T09:22:01;2.40;99.90
22436;DHT22;11385;50.822;4.324;2024-01-15T09:24:27;2.40;99.90
22436;DHT22;11385;50.822;4.324;2024-01-15T09:26:54;2.30;99.90
22436;DHT22;11385;50.822;4.324;2024-01-15T09:29:21;2.40;99.90
22436;DHT22;11385;50.822;4.324;2024-01-15T09:31:50;2.50;99.90
22436;DHT22;11385;50.822;4.324;2024-01-15T09:34:17;2.50;99.90
22436;DHT22;11385;50.822;4.324;2024-01-15T09:36:44;2.50;99.90
22436;DHT22;11385;50.822;4.324;2024-01-15T09:39:11;2.60;99.90
22436;DHT22;11385;50.822;4.324;2024-01-15T09:41:38;2.60;99.90
22436;DHT22;11385;50.822;4.324;2024-01-15T09:44:05;2.60;99.90
22436;DHT22;11385;50.822;4.324;2024-01-15T09:46:34;2.70;99.90
22436;DHT22;11385;50.822;4.324;2024-01-15T09:49:01;2.60;99.90
22436;DHT22;11385;50.822;4.324;2024-01-15T09:51:31;2.70;99.90
22436;DHT22;11385;50.822;4.324;2024-01-15T09:53:58;2.60;99.90
22436;DHT22;11385;50.822;4.324;2024-01-15T09:56:25;2.70;99.90
22436;DHT22;11385;50.822;4.324;2024-01-15T09:58:52;2.60;99.90
22436;DHT22;11385;50.822;4.324;2024-01-15T10:01:20;2.60;99.90
22436;DHT22;11385;50.822;4.324;2024-01-15T10:03:47;2.70;99.90
22436;DHT22;11385;50.822;4.324;2024-01-15T10:06:16;2.70;99.90
22436;DHT22;11385;50.822;4.324;2024-01-15T10:08:49;2.70;99.90
22436;DHT22;11385;50.822;4.324;2024-01-15T10:11:16;2.80;99.90
22436;DHT22;11385;50.822;4.324;2024-01-15T10:13:44;2.80;99.90
22436;DHT22;11385;50.822;4.324;2024-01-15T10:16:11;2.80;99.90
22436;DHT22;11385;50.822;4.324;2024-01-15T10:18:37;2.80;99.90
22436;DHT22;11385;50.822;4.324;2024-01-15T10:21:07;2.90;99.90
22436;DHT22;11385;50.822;4.324;2024-01-15T10:23:34;3.00;99.90
22436;DHT22;11385;50.822;4.324;2024-01-15T10:26:02;2.90;99.90
22436;DHT22;11385;50.822;4.324;2024-01-15T10:28:30;2.90;99.90
22436;DHT22;11385;50.822;4.324;2024-01-15T10:30:58;2.80;99.90
22436;DHT22;11385;50.822;4.324;2024-01-15T10:33:27;2.80;99.90
22436;DHT22;11385;50.822;4.324;2024-01-15T10:35:54;2.80;99.90
22436;DHT22;11385;50.822;4.324;2024-01-15T10:38:22;2.90;99.90
22436;DHT22;11385;50.822;4.324;2024-01-15T10:40:52;3.00;99.90
22436;DHT22;11385;50.822;4.324;2024-01-15T10:43:19;3.10;99.90
22436;DHT22;11385;50.822;4.324;2024-01-15T10:45:48;3.10;99.90
22436;DHT22;11385;50.822;4.324;2024-01-15T10:48:17;3.10;99.90
22436;DHT22;11385;50.822;4.324;2024-01-15T10:50:46;3.10;99.90
22436;DHT22;11385;50.822;4.324;2024-01-15T10:53:15;3.10;99.90
22436;DHT22;11385;50.822;4.324;2024-01-15T10:55:42;3.10;99.90
22436;DHT22;11385;50.822;4.324;2024-01-15T10:58:10;3.10;99.90
22436;DHT22;11385;50.822;4.324;2024-01-15T11:00:37;3.20;99.90
22436;DHT22;11385;50.822;4.324;2024-01-15T11:03:06;3.30;99.90
22436;DHT22;11385;50.822;4.324;2024-01-15T11:05:37;3.30;99.90
22436;DHT22;11385;50.822;4.324;2024-01-15T11:08:06;3.50;99.90
22436;DHT22;11385;50.822;4.324;2024-01-15T11:10:42;3.60;99.90
22436;DHT22;11385;50.822;4.324;2024-01-15T11:13:19;3.60;99.90
22436;DHT22;11385;50.822;4.324;2024-01-15T11:15:54;3.60;99.90
22436;DHT22;11385;50.822;4.324;2024-01-15T11:18:21;3.70;99.90
22436;DHT22;11385;50.822;4.324;2024-01-15T11:26:26;3.80;99.90
22436;DHT22;11385;50.822;4.324;2024-01-15T11:28:47;3.70;99.90
22436;DHT22;11385;50.822;4.324;2024-01-15T11:31:14;3.60;99.90
22436;DHT22;11385;50.822;4.324;2024-01-15T11:33:49;3.60;99.90
22436;DHT22;11385;50.822;4.324;2024-01-15T11:36:16;3.70;99.90
22436;DHT22;11385;50.822;4.324;2024-01-15T11:38:43;3.60;99.90
22436;DHT22;11385;50.822;4.324;2024-01-15T11:41:15;3.60;99.90
22436;DHT22;11385;50.822;4.324;2024-01-15T11:43:42;3.70;99.90
22436;DHT22;11385;50.822;4.324;2024-01-15T11:46:12;3.70;99.90
22436;DHT22;11385;50.822;4.324;2024-01-15T11:48:43;3.70;99.90
22436;DHT22;11385;50.822;4.324;2024-01-15T11:51:12;3.60;99.90
22436;DHT22;11385;50.822;4.324;2024-01-15T11:53:44;3.60;99.90
22436;DHT22;11385;50.822;4.324;2024-01-15T11:56:14;3.60;99.90
22436;DHT22;11385;50.822;4.324;2024-01-15T11:58:45;3.60;99.90
22436;DHT22;11385;50.822;4.324;2024-01-15T12:01:12;3.60;99.90
22436;DHT22;11385;50.822;4.324;2024-01-15T12:03:38;3.80;99.90
22436;DHT22;11385;50.822;4.324;2024-01-15T12:06:06;3.80;99.90
22436;DHT22;11385;50.822;4.324;2024-01-15T12:08:33;3.90;99.90
22436;DHT22;11385;50.822;4.324;2024-01-15T12:11:03;3.90;99.90
22436;DHT22;11385;50.822;4.324;2024-01-15T12:13:31;4.00;99.90
22436;DHT22;11385;50.822;4.324;2024-01-15T12:15:57;4.00;99.90
22436;DHT22;11385;50.822;4.324;2024-01-15T12:18:26;4.10;99.90
22436;DHT22;11385;50.822;4.324;2024-01-15T12:20:54;4.00;99.90
22436;DHT22;11385;50.822;4.324;2024-01-15T12:23:21;4.10;99.90
22436;DHT22;11385;50.822;4.324;2024-01-15T12:25:47;4.10;99.90
22436;DHT22;11385;50.822;4.324;2024-01-15T12:28:15;4.20;99.90
22436;DHT22;11385;50.822;4.324;2024-01-15T12:30:42;4.30;99.90
22436;DHT22;11385;50.822;4.324;2024-01-15T12:33:10;4.30;99.90
22436;DHT22;11385;50.822;4.324;2024-01-15T12:35:37;4.40;99.90
22436;DHT22;11385;50.822;4.324;2024-01-15T12:38:04;4.50;99.90
22436;DHT22;11385;50.822;4.324;2024-01-15T12:40:32;4.90;99.90
22436;DHT22;11385;50.822;4.324;2024-01-15T12:43:00;4.80;99.90
22436;DHT22;11385;50.822;4.324;2024-01-15T12:45:27;4.60;99.90
22436;DHT22;11385;50.822;4.324;2024-01-15T12:47:54;4.50;99.90
22436;DHT22;11385;50.822;4.324;2024-01-15T12:50:24;4.40;99.90
22436;DHT22;11385;50.822;4.324;2024-01-15T12:52:51;4.20;99.90
22436;DHT22;11385;50.822;4.324;2024-01-15T12:55:18;4.10;99.90
22436;DHT22;11385;50.822;4.324;2024-01-15T12:57:44;4.00;99.90
22436;DHT22;11385;50.822;4.324;2024-01-15T13:00:12;4.00;99.90
22436;DHT22;11385;50.822;4.324;2024-01-15T13:02:39;4.00;99.90
22436;DHT22;11385;50.822;4.324;2024-01-15T13:05:08;4.00;99.90
22436;DHT22;11385;50.822;4.324;2024-01-15T13:07:37;4.00;99.90
22436;DHT22;11385;50.822;4.324;2024-01-15T13:10:04;4.00;99.90
22436;DHT22;11385;50.822;4.324;2024-01-15T13:12:32;4.10;99.90
22436;DHT22;11385;50.822;4.324;2024-01-15T13:14:59;4.00;99.90
22436;DHT22;11385;50.822;4.324;2024-01-15T13:17:26;4.00;99.90
22436;DHT22;11385;50.822;4.324;2024-01-15T13:19:52;3.70;99.90
22436;DHT22;11385;50.822;4.324;2024-01-15T13:22:19;3.50;99.90
22436;DHT22;11385;50.822;4.324;2024-01-15T13:24:46;3.60;99.90
22436;DHT22;11385;50.822;4.324;2024-01-15T13:27:13;3.60;99.90
22436;DHT22;11385;50.822;4.324;2024-01-15T13:29:39;3.80;99.90
22436;DHT22;11385;50.822;4.324;2024-01-15T13:32:06;3.90;99.90
22436;DHT22;11385;50.822;4.324;2024-01-15T13:34:33;3.90;99.90
22436;DHT22;11385;50.822;4.324;2024-01-15T13:37:01;4.10;99.90
22436;DHT22;11385;50.822;4.324;2024-01-15T13:39:27;4.00;99.90
22436;DHT22;11385;50.822;4.324;2024-01-15T13:41:56;4.10;99.90
22436;DHT22;11385;50.822;4.324;2024-01-15T13:44:22;4.20;99.90
22436;DHT22;11385;50.822;4.324;2024-01-15T13:46:49;4.30;99.90
22436;DHT22;11385;50.822;4.324;2024-01-15T13:49:16;4.50;99.90
22436;DHT22;11385;50.822;4.324;2024-01-15T13:51:42;4.40;99.90
22436;DHT22;11385;50.822;4.324;2024-01-15T13:54:09;4.40;99.90
22436;DHT22;11385;50.822;4.324;2024-01-15T13:56:36;4.40;99.90
22436;DHT22;11385;50.822;4.324;2024-01-15T13:59:02;4.30;99.90
22436;DHT22;11385;50.822;4.324;2024-01-15T14:01:30;4.10;99.90
22436;DHT22;11385;50.822;4.324;2024-01-15T14:03:57;3.90;99.90
22436;DHT22;11385;50.822;4.324;2024-01-15T14:06:24;3.50;99.90
22436;DHT22;11385;50.822;4.324;2024-01-15T14:08:51;3.40;99.90
22436;DHT22;11385;50.822;4.324;2024-01-15T14:11:18;3.10;99.90
22436;DHT22;11385;50.822;4.324;2024-01-15T14:13:45;3.10;99.90
22436;DHT22;11385;50.822;4.324;2024-01-15T14:16:11;3.00;99.90
22436;DHT22;11385;50.822;4.324;2024-01-15T14:18:38;3.00;99.90
22436;DHT22;11385;50.822;4.324;2024-01-15T14:21:05;3.10;99.90
22436;DHT22;11385;50.822;4.324;2024-01-15T14:23:31;3.30;99.90
22436;DHT22;11385;50.822;4.324;2024-01-15T14:25:58;3.40;99.90
22436;DHT22;11385;50.822;4.324;2024-01-15T14:28:24;3.40;99.90
22436;DHT22;11385;50.822;4.324;2024-01-15T14:30:51;3.40;99.90
22436;DHT22;11385;50.822;4.324;2024-01-15T14:33:18;3.50;99.90
22436;DHT22;11385;50.822;4.324;2024-01-15T14:35:46;3.50;99.90
22436;DHT22;11385;50.822;4.324;2024-01-15T14:38:13;3.30;99.90
22436;DHT22;11385;50.822;4.324;2024-01-15T14:40:39;3.20;99.90
22436;DHT22;11385;50.822;4.324;2024-01-15T14:43:06;3.10;99.90
22436;DHT22;11385;50.822;4.324;2024-01-15T14:45:34;2.90;99.90
22436;DHT22;11385;50.822;4.324;2024-01-15T14:48:00;2.80;99.90
22436;DHT22;11385;50.822;4.324;2024-01-15T14:50:27;2.70;99.90
22436;DHT22;11385;50.822;4.324;2024-01-15T14:52:54;2.60;99.90
22436;DHT22;11385;50.822;4.324;2024-01-15T14:55:20;2.60;99.90
22436;DHT22;11385;50.822;4.324;2024-01-15T14:57:49;2.70;99.90
22436;DHT22;11385;50.822;4.324;2024-01-15T15:00:16;2.70;99.90
22436;DHT22;11385;50.822;4.324;2024-01-15T15:02:43;2.50;99.90
22436;DHT22;11385;50.822;4.324;2024-01-15T15:05:10;2.50;99.90
22436;DHT22;11385;50.822;4.324;2024-01-15T15:07:39;2.30;99.90
22436;DHT22;11385;50.822;4.324;2024-01-15T15:10:06;2.30;99.90
22436;DHT22;11385;50.822;4.324;2024-01-15T15:12:33;2.10;99.90
22436;DHT22;11385;50.822;4.324;2024-01-15T15:15:00;2.00;99.90
22436;DHT22;11385;50.822;4.324;2024-01-15T15:17:27;2.00;99.90
22436;DHT22;11385;50.822;4.324;2024-01-15T15:19:53;1.90;99.90
22436;DHT22;11385;50.822;4.324;2024-01-15T15:22:21;2.00;99.90
22436;DHT22;11385;50.822;4.324;2024-01-15T15:24:47;2.10;99.90
22436;DHT22;11385;50.822;4.324;2024-01-15T15:27:14;2.10;99.90
22436;DHT22;11385;50.822;4.324;2024-01-15T15:29:40;2.10;99.90
22436;DHT22;11385;50.822;4.324;2024-01-15T15:32:07;2.00;99.90
22436;DHT22;11385;50.822;4.324;2024-01-15T15:34:34;2.00;99.90
22436;DHT22;11385;50.822;4.324;2024-01-15T15:37:01;2.10;99.90
22436;DHT22;11385;50.822;4.324;2024-01-15T15:39:27;2.20;99.90
22436;DHT22;11385;50.822;4.324;2024-01-15T15:41:54;2.20;99.90
22436;DHT22;11385;50.822;4.324;2024-01-15T15:44:21;2.20;99.90
22436;DHT22;11385;50.822;4.324;2024-01-15T15:46:48;2.20;99.90
22436;DHT22;11385;50.822;4.324;2024-01-15T15:49:14;2.20;99.90